Floris, Iowa
Current Conditions -  °F | °C
As of 7:53 AM on Thursday 30 Oct 2014 (Local Time) from KOTM Reporting Station
Overcast Overcast  
Wind Chill: 39°   Ceiling: 9500
Heat Index: 43°   Visibility: 10mi
Dew Point: 35°   Wind: 7mph
Humidity: 74%   Direction: 140°SE
Pressure: 30.06"   Gusts: NA
Location:  40.87°N, 92.33°W
Report Text: KOTM 301253Z AUTO 14006KT 10SM OVC095 06/02 A3006 RMK AO2 SLP183 T00610017
Loading
Personal Weather Stations






























Interactive Weather Map
Tropical Storm Tracking
New forecast layout! Learn more

10-Day Weather Forecast

Advertisements
Track Severe Weather on mobile